createdAt,value
2017-10-27T00:00:03.776Z,14.10
2017-10-27T00:02:31.310Z,14.10
2017-10-27T00:04:58.816Z,14.10
2017-10-27T00:07:26.307Z,14.10
2017-10-27T00:09:53.818Z,14.10
2017-10-27T00:12:22.077Z,14.10
2017-10-27T00:14:49.573Z,14.10
2017-10-27T00:17:17.198Z,14.10
2017-10-27T00:19:45.474Z,14.10
2017-10-27T00:22:13.742Z,14.10
2017-10-27T00:24:42.032Z,14.10
2017-10-27T00:27:10.299Z,14.10
2017-10-27T00:29:38.557Z,14.10
2017-10-27T00:32:06.078Z,14.10
2017-10-27T00:34:33.586Z,14.00
2017-10-27T00:37:01.849Z,14.10
2017-10-27T00:39:29.363Z,14.00
2017-10-27T00:41:56.875Z,14.10
2017-10-27T00:44:25.146Z,14.00
2017-10-27T00:46:53.433Z,14.00
2017-10-27T00:49:20.949Z,14.00
2017-10-27T00:51:48.460Z,14.00
2017-10-27T00:54:15.974Z,14.00
2017-10-27T00:56:43.461Z,14.00
2017-10-27T00:59:10.969Z,14.00
2017-10-27T01:01:38.490Z,14.00
2017-10-27T01:04:06.005Z,14.00
2017-10-27T01:06:33.501Z,14.00
2017-10-27T01:09:01.121Z,14.00
2017-10-27T01:11:28.613Z,14.00
2017-10-27T01:13:56.115Z,14.00
2017-10-27T01:16:23.730Z,14.00
2017-10-27T01:18:51.242Z,14.00
2017-10-27T01:21:18.754Z,14.00
2017-10-27T01:23:46.368Z,14.00
2017-10-27T01:26:13.860Z,13.90
2017-10-27T01:28:41.370Z,13.90
2017-10-27T01:31:08.993Z,13.90
2017-10-27T01:33:36.493Z,13.90
2017-10-27T01:36:03.992Z,13.90
2017-10-27T01:38:31.530Z,13.90
2017-10-27T01:40:59.808Z,13.80
2017-10-27T01:43:28.068Z,13.90
2017-10-27T01:45:55.594Z,13.80
2017-10-27T01:48:23.097Z,13.80
2017-10-27T01:50:51.374Z,13.80
2017-10-27T01:53:19.662Z,13.80
2017-10-27T01:55:47.162Z,13.80
2017-10-27T01:58:14.673Z,13.80
2017-10-27T02:00:42.177Z,13.80
2017-10-27T02:03:09.678Z,13.80
2017-10-27T02:05:37.176Z,13.80
2017-10-27T02:08:04.685Z,13.80
2017-10-27T02:10:32.949Z,13.90
2017-10-27T02:13:01.225Z,13.90
2017-10-27T02:15:29.513Z,13.90
2017-10-27T02:17:57.042Z,13.90
2017-10-27T02:20:24.548Z,13.90
2017-10-27T02:22:52.065Z,13.90
2017-10-27T02:25:19.571Z,13.90
2017-10-27T02:27:47.080Z,14.00
2017-10-27T02:30:14.693Z,14.00
2017-10-27T02:32:42.971Z,14.10
2017-10-27T02:35:10.466Z,14.00
2017-10-27T02:37:38.006Z,14.10
2017-10-27T02:40:05.509Z,14.10
2017-10-27T02:42:33.017Z,14.10
2017-10-27T02:45:00.538Z,14.10
2017-10-27T02:47:28.806Z,14.20
2017-10-27T02:49:56.304Z,14.20
2017-10-27T02:52:23.912Z,14.20
2017-10-27T02:54:52.183Z,14.20
2017-10-27T02:57:20.445Z,14.20
2017-10-27T02:59:48.828Z,14.20
2017-10-27T03:02:17.086Z,14.30
2017-10-27T03:04:44.584Z,14.30
2017-10-27T03:07:12.101Z,14.30
2017-10-27T03:09:40.379Z,14.30
2017-10-27T03:12:08.640Z,14.30
2017-10-27T03:14:36.249Z,14.30
2017-10-27T03:17:03.750Z,14.40
2017-10-27T03:19:31.249Z,14.40
2017-10-27T03:21:58.873Z,14.30
2017-10-27T03:24:26.362Z,14.30
2017-10-27T03:26:53.881Z,14.40
2017-10-27T03:29:21.516Z,14.40
2017-10-27T03:31:49.023Z,14.40
2017-10-27T03:34:17.286Z,14.30
2017-10-27T03:36:44.798Z,14.30
2017-10-27T03:39:12.289Z,14.30
2017-10-27T03:41:39.781Z,14.40
2017-10-27T03:44:07.400Z,14.30
2017-10-27T03:46:34.896Z,14.40
2017-10-27T03:49:02.425Z,14.30
2017-10-27T03:51:29.953Z,14.40
2017-10-27T03:53:57.447Z,14.40
2017-10-27T03:56:25.743Z,14.40
2017-10-27T03:58:54.223Z,14.30
2017-10-27T04:01:22.836Z,14.30
2017-10-27T04:03:50.377Z,14.40
2017-10-27T04:06:17.864Z,14.30
2017-10-27T04:08:45.360Z,14.40
2017-10-27T04:11:13.649Z,14.30
2017-10-27T04:13:41.157Z,14.30
2017-10-27T04:16:08.652Z,14.30
2017-10-27T04:18:36.941Z,14.30
2017-10-27T04:21:04.440Z,14.30
2017-10-27T04:23:31.966Z,14.30
2017-10-27T04:25:59.477Z,14.30
2017-10-27T04:28:27.005Z,14.30
2017-10-27T04:30:54.513Z,14.30
2017-10-27T04:33:22.794Z,14.30
2017-10-27T04:35:51.074Z,14.30
2017-10-27T04:38:18.597Z,14.30
2017-10-27T04:40:46.116Z,14.30
2017-10-27T04:43:13.641Z,14.30
2017-10-27T04:45:41.924Z,14.30
2017-10-27T04:48:09.421Z,14.30
2017-10-27T04:50:36.948Z,14.30
2017-10-27T04:53:04.456Z,14.30
2017-10-27T04:55:31.976Z,14.20
2017-10-27T04:58:00.144Z,14.30
2017-10-27T05:00:27.669Z,14.30
2017-10-27T05:02:55.929Z,14.20
2017-10-27T05:05:24.216Z,14.30
2017-10-27T05:07:52.481Z,14.20
2017-10-27T05:10:20.781Z,14.20
2017-10-27T05:12:48.277Z,14.20
2017-10-27T05:15:15.767Z,14.30
2017-10-27T05:17:49.788Z,14.20
2017-10-27T05:20:23.747Z,14.20
2017-10-27T05:22:56.855Z,14.20
2017-10-27T05:25:24.361Z,14.20
2017-10-27T05:27:52.623Z,14.20
2017-10-27T05:30:20.158Z,14.20
2017-10-27T05:32:47.641Z,14.20
2017-10-27T05:35:15.129Z,14.20
2017-10-27T05:37:42.649Z,14.20
2017-10-27T05:40:10.141Z,14.20
2017-10-27T05:42:38.439Z,14.20
2017-10-27T05:45:05.938Z,14.20
2017-10-27T05:47:33.433Z,14.20
2017-10-27T05:50:00.952Z,14.10
2017-10-27T05:52:28.436Z,14.20
2017-10-27T05:54:56.728Z,14.10
2017-10-27T05:57:24.208Z,14.10
2017-10-27T05:59:52.466Z,14.10
2017-10-27T06:02:19.988Z,14.10
2017-10-27T06:04:48.243Z,14.00
2017-10-27T06:07:15.787Z,14.00
2017-10-27T06:09:43.290Z,14.00
2017-10-27T06:12:11.580Z,14.00
2017-10-27T06:14:39.093Z,13.90
2017-10-27T06:17:06.619Z,13.90
2017-10-27T06:19:34.149Z,13.90
2017-10-27T06:22:01.668Z,13.90
2017-10-27T06:24:29.152Z,13.80
2017-10-27T06:26:57.463Z,13.80
2017-10-27T06:29:24.972Z,13.80
2017-10-27T06:31:53.219Z,13.80
2017-10-27T06:34:20.747Z,13.80
2017-10-27T06:36:48.272Z,13.80
2017-10-27T06:39:16.532Z,13.70
2017-10-27T06:41:44.823Z,13.70
2017-10-27T06:44:12.321Z,13.70
2017-10-27T06:46:39.809Z,13.80
2017-10-27T06:49:07.344Z,13.80
2017-10-27T06:51:35.102Z,13.80
2017-10-27T06:54:02.592Z,13.80
2017-10-27T06:56:30.856Z,13.80
2017-10-27T06:58:58.396Z,13.80
2017-10-27T07:01:25.901Z,13.80
2017-10-27T07:03:54.162Z,13.80
2017-10-27T07:06:22.457Z,13.70
2017-10-27T07:08:49.952Z,13.70
2017-10-27T07:11:17.483Z,13.80
2017-10-27T07:13:45.004Z,13.70
2017-10-27T07:16:13.281Z,13.70
2017-10-27T07:18:41.551Z,13.70
2017-10-27T07:21:09.169Z,13.70
2017-10-27T07:23:36.674Z,13.70
2017-10-27T07:26:04.941Z,13.60
2017-10-27T07:28:32.465Z,13.60
2017-10-27T07:30:59.988Z,13.60
2017-10-27T07:33:27.479Z,13.60
2017-10-27T07:35:55.099Z,13.60
2017-10-27T07:38:22.601Z,13.50
2017-10-27T07:40:50.100Z,13.50
2017-10-27T07:43:18.373Z,13.50
2017-10-27T07:45:45.870Z,13.50
2017-10-27T07:48:13.360Z,13.50
2017-10-27T07:50:40.872Z,13.50
2017-10-27T07:53:08.375Z,13.50
2017-10-27T07:55:35.879Z,13.50
2017-10-27T07:58:03.395Z,13.50
2017-10-27T08:00:31.661Z,13.50
2017-10-27T08:02:59.153Z,13.50
2017-10-27T08:05:26.681Z,13.50
2017-10-27T08:07:54.189Z,13.40
2017-10-27T08:10:21.680Z,13.50
2017-10-27T08:12:49.188Z,13.40
2017-10-27T08:15:16.684Z,13.40
2017-10-27T08:17:44.168Z,13.40
2017-10-27T08:20:11.672Z,13.40
2017-10-27T08:22:39.164Z,13.40
2017-10-27T08:25:06.658Z,13.40
2017-10-27T08:27:35.037Z,13.40
2017-10-27T08:30:03.302Z,13.40
2017-10-27T08:32:31.568Z,13.40
2017-10-27T08:34:59.064Z,13.40
2017-10-27T08:37:26.556Z,13.40
2017-10-27T08:39:54.052Z,13.40
2017-10-27T08:42:27.218Z,13.30
2017-10-27T08:44:54.748Z,13.30
2017-10-27T08:47:22.278Z,13.20
2017-10-27T08:49:49.918Z,13.20
2017-10-27T08:52:18.177Z,13.10
2017-10-27T08:54:46.464Z,13.10
2017-10-27T08:57:13.982Z,13.10
2017-10-27T08:59:41.485Z,13.10
2017-10-27T09:02:08.975Z,13.00
2017-10-27T09:04:36.484Z,13.00
2017-10-27T09:07:04.777Z,13.00
2017-10-27T09:09:32.275Z,13.00
2017-10-27T09:11:59.780Z,13.00
2017-10-27T09:14:28.041Z,13.00
2017-10-27T09:16:56.312Z,12.90
2017-10-27T09:19:24.591Z,12.90
2017-10-27T09:21:52.098Z,12.90
2017-10-27T09:24:19.592Z,12.90
2017-10-27T09:26:47.122Z,12.90
2017-10-27T09:29:14.615Z,12.90
2017-10-27T09:31:42.880Z,12.90
2017-10-27T09:34:10.507Z,12.90
2017-10-27T09:36:38.003Z,12.80
2017-10-27T09:39:05.498Z,12.80
2017-10-27T09:41:33.016Z,12.80
2017-10-27T09:44:00.524Z,12.80
2017-10-27T09:46:28.017Z,12.80
2017-10-27T09:48:55.789Z,12.80
2017-10-27T09:51:23.282Z,12.70
2017-10-27T09:53:50.786Z,12.70
2017-10-27T09:56:18.291Z,12.70
2017-10-27T09:58:45.779Z,12.70
2017-10-27T10:01:13.281Z,12.70
2017-10-27T10:03:41.560Z,12.70
2017-10-27T10:06:09.820Z,12.60
2017-10-27T10:08:37.307Z,12.60
2017-10-27T10:11:04.922Z,12.70
2017-10-27T10:13:32.421Z,12.70
2017-10-27T10:15:59.914Z,12.70
2017-10-27T10:18:27.446Z,12.70
2017-10-27T10:20:54.950Z,12.70
2017-10-27T10:23:22.475Z,12.60
2017-10-27T10:25:49.997Z,12.70
2017-10-27T10:28:18.265Z,12.70
2017-10-27T10:30:46.545Z,12.70
2017-10-27T10:33:14.857Z,12.70
2017-10-27T10:35:42.354Z,12.70
2017-10-27T10:38:09.865Z,12.70
2017-10-27T10:40:37.388Z,12.70
2017-10-27T10:43:05.644Z,12.60
2017-10-27T10:45:33.140Z,12.60
2017-10-27T10:48:00.753Z,12.70
2017-10-27T10:50:28.255Z,12.60
2017-10-27T10:52:55.747Z,12.70
2017-10-27T10:55:23.263Z,12.60
2017-10-27T10:57:50.772Z,12.70
2017-10-27T11:00:18.281Z,12.70
2017-10-27T11:02:45.890Z,12.70
2017-10-27T11:05:13.386Z,12.60
2017-10-27T11:07:41.650Z,12.60
2017-10-27T11:10:09.946Z,12.70
2017-10-27T11:12:37.456Z,12.60
2017-10-27T11:15:04.948Z,12.60
2017-10-27T11:17:32.461Z,12.60
2017-10-27T11:19:59.968Z,12.70
2017-10-27T11:22:27.457Z,12.70
2017-10-27T11:24:54.972Z,12.70
2017-10-27T11:27:23.242Z,12.70
2017-10-27T11:29:51.519Z,12.70
2017-10-27T11:32:19.817Z,12.80
2017-10-27T11:34:47.315Z,12.70
2017-10-27T11:37:14.808Z,12.80
2017-10-27T11:39:43.093Z,12.80
2017-10-27T11:42:11.357Z,12.80
2017-10-27T11:44:39.613Z,12.90
2017-10-27T11:47:07.121Z,12.90
2017-10-27T11:49:34.621Z,13.00
2017-10-27T11:52:02.134Z,12.90
2017-10-27T11:54:29.753Z,13.00
2017-10-27T11:56:58.031Z,12.90
2017-10-27T11:59:26.313Z,12.90
2017-10-27T12:01:54.604Z,12.90
2017-10-27T12:04:22.101Z,12.90
2017-10-27T12:06:49.601Z,12.90
2017-10-27T12:09:17.981Z,12.90
2017-10-27T12:11:46.241Z,12.80
2017-10-27T12:14:13.738Z,12.80
2017-10-27T12:16:41.271Z,12.80
2017-10-27T12:19:09.528Z,12.90
2017-10-27T12:21:37.802Z,13.00
2017-10-27T12:24:06.209Z,13.10
2017-10-27T12:26:33.713Z,13.10
2017-10-27T12:29:01.239Z,13.20
2017-10-27T12:31:28.810Z,13.30
2017-10-27T12:33:56.500Z,13.40
2017-10-27T12:36:25.054Z,13.30
2017-10-27T12:38:52.822Z,13.30
2017-10-27T12:41:20.611Z,13.30
2017-10-27T12:43:49.124Z,13.20
2017-10-27T12:46:16.696Z,13.20
2017-10-27T12:48:44.212Z,13.20
2017-10-27T12:51:11.914Z,13.20
2017-10-27T12:53:39.803Z,13.20
2017-10-27T12:56:07.367Z,13.10
2017-10-27T12:58:34.885Z,13.10
2017-10-27T13:01:02.555Z,13.10
2017-10-27T13:03:30.297Z,13.00
2017-10-27T13:05:58.104Z,13.00
2017-10-27T13:08:26.014Z,12.90
2017-10-27T13:10:54.338Z,13.00
2017-10-27T13:13:21.869Z,13.00
2017-10-27T13:15:49.427Z,13.10
2017-10-27T13:18:17.712Z,13.30
2017-10-27T13:20:45.239Z,13.30
2017-10-27T13:23:12.802Z,13.40
2017-10-27T13:25:40.383Z,13.40
2017-10-27T13:28:08.118Z,13.50
2017-10-27T13:30:36.026Z,13.60
2017-10-27T13:33:03.831Z,13.60
2017-10-27T13:35:32.418Z,13.70
2017-10-27T13:38:01.190Z,13.70
2017-10-27T13:40:29.704Z,13.70
2017-10-27T13:46:00.397Z,13.60
2017-10-27T13:48:27.992Z,13.60
2017-10-27T13:50:55.528Z,13.50
2017-10-27T13:53:23.063Z,13.50
2017-10-27T13:55:50.591Z,13.50
2017-10-27T13:58:18.143Z,13.40
2017-10-27T14:00:46.489Z,13.40
2017-10-27T14:03:15.818Z,13.40
2017-10-27T14:05:44.135Z,13.30
2017-10-27T14:08:11.724Z,13.30
2017-10-27T14:10:39.350Z,13.30
2017-10-27T14:13:06.890Z,13.30
2017-10-27T14:15:34.472Z,13.20
2017-10-27T14:18:02.016Z,13.20
2017-10-27T14:20:29.511Z,13.20
2017-10-27T14:22:57.070Z,13.10
2017-10-27T14:25:24.944Z,13.10
2017-10-27T14:27:52.447Z,13.10
2017-10-27T14:30:19.980Z,13.10
2017-10-27T14:32:48.240Z,13.00
2017-10-27T14:35:15.728Z,13.00
2017-10-27T14:37:44.025Z,13.00
2017-10-27T14:40:11.528Z,13.00
2017-10-27T14:42:39.020Z,13.00
2017-10-27T14:45:06.565Z,13.00
2017-10-27T14:47:34.821Z,13.10
2017-10-27T14:50:02.361Z,13.10
2017-10-27T14:52:29.881Z,13.10
2017-10-27T14:54:57.390Z,13.10
2017-10-27T14:57:24.917Z,13.10
2017-10-27T14:59:52.441Z,13.00
2017-10-27T15:02:19.939Z,13.00
2017-10-27T15:04:47.424Z,12.90
2017-10-27T15:07:18.695Z,12.90
2017-10-27T15:09:46.249Z,12.80
2017-10-27T15:12:13.743Z,12.80
2017-10-27T15:14:43.700Z,12.70
2017-10-27T15:17:11.216Z,12.70
2017-10-27T15:19:38.893Z,12.70
2017-10-27T15:22:09.042Z,12.70
2017-10-27T15:24:36.544Z,12.70
2017-10-27T15:27:04.073Z,12.60
2017-10-27T15:29:31.569Z,12.60
2017-10-27T15:31:59.108Z,12.60
2017-10-27T15:34:26.600Z,12.60
2017-10-27T15:36:54.227Z,12.50
2017-10-27T15:39:21.732Z,12.50
2017-10-27T15:41:49.253Z,12.50
2017-10-27T15:44:16.747Z,12.50
2017-10-27T15:46:44.276Z,12.50
2017-10-27T15:49:11.808Z,12.50
2017-10-27T15:51:39.306Z,12.40
2017-10-27T15:54:06.807Z,12.40
2017-10-27T15:56:34.345Z,12.40
2017-10-27T15:59:02.613Z,12.40
2017-10-27T16:01:30.872Z,12.40
2017-10-27T16:03:58.413Z,12.40
2017-10-27T16:06:25.942Z,12.30
2017-10-27T16:08:53.437Z,12.30
2017-10-27T16:11:20.964Z,12.30
2017-10-27T16:13:48.461Z,12.20
2017-10-27T16:16:15.993Z,12.20
2017-10-27T16:18:43.485Z,12.10
2017-10-27T16:21:11.014Z,12.10
2017-10-27T16:23:38.520Z,12.00
2017-10-27T16:26:06.828Z,11.90
2017-10-27T16:28:34.327Z,11.90
2017-10-27T16:31:01.829Z,11.90
2017-10-27T16:33:29.356Z,11.90
2017-10-27T16:35:56.853Z,11.80
2017-10-27T16:38:24.384Z,11.80
2017-10-27T16:40:51.892Z,11.80
2017-10-27T16:43:19.408Z,11.70
2017-10-27T16:45:46.933Z,11.70
2017-10-27T16:48:15.210Z,11.70
2017-10-27T16:50:43.515Z,11.60
2017-10-27T16:53:11.010Z,11.60
2017-10-27T16:55:38.492Z,11.60
2017-10-27T16:58:06.025Z,11.60
2017-10-27T17:00:33.525Z,11.50
2017-10-27T17:03:01.780Z,11.40
2017-10-27T17:05:29.288Z,11.40
2017-10-27T17:07:56.817Z,11.40
2017-10-27T17:10:25.081Z,11.30
2017-10-27T17:12:53.380Z,11.30
2017-10-27T17:15:20.868Z,11.30
2017-10-27T17:17:48.355Z,11.30
2017-10-27T17:20:15.879Z,11.30
2017-10-27T17:22:43.376Z,11.30
2017-10-27T17:25:11.637Z,11.20
2017-10-27T17:27:39.157Z,11.20
2017-10-27T17:30:06.652Z,11.20
2017-10-27T17:32:34.192Z,11.20
2017-10-27T17:35:01.779Z,11.10
2017-10-27T17:37:30.052Z,11.10
2017-10-27T17:39:58.339Z,11.10
2017-10-27T17:42:25.841Z,11.10
2017-10-27T17:44:53.682Z,11.10
2017-10-27T17:47:21.207Z,11.10
2017-10-27T17:49:48.729Z,11.00
2017-10-27T17:52:16.235Z,11.00
2017-10-27T17:54:44.498Z,11.00
2017-10-27T17:57:12.007Z,10.90
2017-10-27T17:59:39.511Z,10.90
2017-10-27T18:02:07.796Z,10.90
2017-10-27T18:04:36.051Z,10.90
2017-10-27T18:07:04.335Z,10.90
2017-10-27T18:09:32.617Z,10.90
2017-10-27T18:12:00.877Z,10.90
2017-10-27T18:14:28.391Z,10.90
2017-10-27T18:16:55.884Z,10.90
2017-10-27T18:19:27.144Z,10.90
2017-10-27T18:21:54.663Z,10.90
2017-10-27T18:24:22.916Z,10.90
2017-10-27T18:26:50.434Z,10.90
2017-10-27T18:29:17.931Z,10.80
2017-10-27T18:31:45.438Z,10.90
2017-10-27T18:34:12.932Z,10.90
2017-10-27T18:36:40.461Z,10.90
2017-10-27T18:39:07.960Z,10.90
2017-10-27T18:41:35.465Z,10.90
2017-10-27T18:44:02.971Z,10.90
2017-10-27T18:46:30.467Z,10.90
2017-10-27T18:48:57.979Z,10.90
2017-10-27T18:51:25.475Z,10.80
2017-10-27T18:53:52.984Z,10.80
2017-10-27T18:56:20.492Z,10.80
2017-10-27T18:58:47.992Z,10.70
2017-10-27T19:01:16.272Z,10.80
2017-10-27T19:03:43.829Z,10.70
2017-10-27T19:06:12.089Z,10.70
2017-10-27T19:08:40.372Z,10.70
2017-10-27T19:11:08.636Z,10.70
2017-10-27T19:13:36.946Z,10.60
2017-10-27T19:16:04.597Z,10.60
2017-10-27T19:18:32.114Z,10.60
2017-10-27T19:20:59.615Z,10.50
2017-10-27T19:23:27.151Z,10.50
2017-10-27T19:25:54.679Z,10.50
2017-10-27T19:28:22.195Z,10.50
2017-10-27T19:30:50.470Z,10.50
2017-10-27T19:33:17.988Z,10.50
2017-10-27T19:35:45.500Z,10.50
2017-10-27T19:38:13.024Z,10.50
2017-10-27T19:40:40.526Z,10.60
2017-10-27T19:43:08.029Z,10.50
2017-10-27T19:45:35.542Z,10.60
2017-10-27T19:48:03.056Z,10.60
2017-10-27T19:50:30.604Z,10.60
2017-10-27T19:52:58.092Z,10.60
2017-10-27T19:55:25.592Z,10.50
2017-10-27T19:57:53.087Z,10.50
2017-10-27T20:00:20.594Z,10.50
2017-10-27T20:02:48.081Z,10.50
2017-10-27T20:05:16.292Z,10.50
2017-10-27T20:07:43.798Z,10.40
2017-10-27T20:10:11.301Z,10.40
2017-10-27T20:12:38.821Z,10.40
2017-10-27T20:15:06.308Z,10.30
2017-10-27T20:17:33.814Z,10.30
2017-10-27T20:20:02.082Z,10.20
2017-10-27T20:22:29.602Z,10.20
2017-10-27T20:24:57.113Z,10.20
2017-10-27T20:27:24.602Z,10.20
2017-10-27T20:29:52.094Z,10.20
2017-10-27T20:32:20.373Z,10.10
2017-10-27T20:34:47.872Z,10.10
2017-10-27T20:37:15.403Z,10.10
2017-10-27T20:39:42.916Z,10.10
2017-10-27T20:42:10.520Z,10.10
2017-10-27T20:44:38.021Z,10.00
2017-10-27T20:47:05.533Z,10.00
2017-10-27T20:49:33.044Z,10.00
2017-10-27T20:52:00.541Z,10.00
2017-10-27T20:54:28.054Z,10.00
2017-10-27T20:56:55.552Z,10.00
2017-10-27T20:59:23.058Z,9.90
2017-10-27T21:01:50.572Z,9.90
2017-10-27T21:04:18.069Z,9.90
2017-10-27T21:06:45.577Z,9.90
2017-10-27T21:09:13.079Z,9.90
2017-10-27T21:11:40.596Z,9.90
2017-10-27T21:14:08.100Z,9.80
2017-10-27T21:16:36.444Z,9.80
2017-10-27T21:19:03.936Z,9.80
2017-10-27T21:21:31.435Z,9.80
2017-10-27T21:23:59.556Z,9.80
2017-10-27T21:26:27.045Z,9.80
2017-10-27T21:28:54.559Z,9.80
2017-10-27T21:31:22.825Z,9.80
2017-10-27T21:33:51.102Z,9.80
2017-10-27T21:36:22.649Z,9.70
2017-10-27T21:38:51.042Z,9.70
2017-10-27T21:41:19.301Z,9.70
2017-10-27T21:43:47.560Z,9.70
2017-10-27T21:46:15.077Z,9.70
2017-10-27T21:48:42.577Z,9.70
2017-10-27T21:51:10.104Z,9.60
2017-10-27T21:53:37.603Z,9.60
2017-10-27T21:56:05.868Z,9.50
2017-10-27T21:58:33.376Z,9.50
2017-10-27T22:01:00.887Z,9.50
2017-10-27T22:03:28.405Z,9.50
2017-10-27T22:05:55.912Z,9.50
2017-10-27T22:08:23.537Z,9.50
2017-10-27T22:10:51.028Z,9.50
2017-10-27T22:13:19.280Z,9.40
2017-10-27T22:15:46.779Z,9.40
2017-10-27T22:18:14.277Z,9.40
2017-10-27T22:20:41.793Z,9.40
2017-10-27T22:23:09.289Z,9.40
2017-10-27T22:25:36.825Z,9.40
2017-10-27T22:28:04.363Z,9.40
2017-10-27T22:30:31.856Z,9.40
2017-10-27T22:33:00.337Z,9.40
2017-10-27T22:35:27.852Z,9.40
2017-10-27T22:37:55.357Z,9.30
2017-10-27T22:40:22.863Z,9.30
2017-10-27T22:42:50.529Z,9.30
2017-10-27T22:45:18.029Z,9.30
2017-10-27T22:47:45.661Z,9.30
2017-10-27T22:50:13.164Z,9.30
2017-10-27T22:52:40.681Z,9.30
2017-10-27T22:55:08.183Z,9.30
2017-10-27T22:57:35.671Z,9.20
2017-10-27T23:00:03.210Z,9.20
2017-10-27T23:02:30.813Z,9.20
2017-10-27T23:04:59.101Z,9.10
2017-10-27T23:07:32.911Z,9.20
2017-10-27T23:10:00.424Z,9.10
2017-10-27T23:12:27.937Z,9.20
2017-10-27T23:14:55.429Z,9.20
2017-10-27T23:17:22.936Z,9.10
2017-10-27T23:19:51.198Z,9.20
2017-10-27T23:22:18.699Z,9.10
2017-10-27T23:24:46.196Z,9.20
2017-10-27T23:27:13.706Z,9.20
2017-10-27T23:29:41.205Z,9.20
2017-10-27T23:32:08.695Z,9.20
2017-10-27T23:34:36.977Z,9.30
2017-10-27T23:37:04.479Z,9.20
2017-10-27T23:39:32.064Z,9.30
2017-10-27T23:41:59.553Z,9.30
2017-10-27T23:44:27.066Z,9.30
2017-10-27T23:46:54.560Z,9.40
2017-10-27T23:49:22.820Z,9.40
2017-10-27T23:51:51.114Z,9.40
2017-10-27T23:54:18.609Z,9.40
2017-10-27T23:56:46.143Z,9.40
2017-10-27T23:59:13.645Z,9.50
